Terminal Aerodrome Forecast
Issued by NWS

Home | Current Version | Previous Version | Text Only | Print | Product List | Glossary On
Versions: 1 2 3 4 5 6 7 8 9 10 11 12 13 14 15 16 17 18 19 20 21 22 23 24
000
FTUS43 KDLH 200500
TAFHYR
TAF
KHYR 200526Z 2006/2106 20006KT P6SM OVC035
     FM200800 22004KT 6SM BR OVC015
     FM201000 24004KT 3SM BR OVC008
     FM201300 28005KT P6SM BKN015
     FM201700 28008KT P6SM SCT050
     FM210100 VRB04KT P6SM -TSRA BKN050CB
     FM210500 29004KT P6SM -RA BKN050=

USA.gov is the U.S. government's official web portal to all federal, state and local government web resources and services.